createdAt,value
2023-02-03T02:20:01.806Z,948.00
2023-02-03T02:21:01.847Z,947.00
2023-02-03T02:22:01.898Z,950.00
2023-02-03T02:23:01.910Z,952.00
2023-02-03T02:24:01.948Z,952.00
2023-02-03T02:25:01.986Z,952.00
2023-02-03T02:26:02.020Z,954.00
2023-02-03T02:27:02.062Z,952.00
2023-02-03T02:28:02.143Z,952.00
2023-02-03T02:29:02.125Z,952.00
2023-02-03T02:30:02.241Z,952.00
2023-02-03T02:31:02.323Z,950.00
2023-02-03T02:32:02.343Z,945.00
2023-02-03T02:33:02.300Z,946.00
2023-02-03T02:34:03.634Z,945.00
2023-02-03T02:35:02.345Z,945.00
2023-02-03T02:36:02.962Z,942.00
2023-02-03T02:37:02.428Z,943.00
2023-02-03T02:38:02.460Z,940.00
2023-02-03T02:39:02.607Z,938.00
2023-02-03T02:40:02.572Z,937.00
2023-02-03T02:41:02.655Z,937.00
2023-02-03T02:42:02.647Z,937.00
2023-02-03T02:43:02.691Z,938.00
2023-02-03T02:44:02.719Z,938.00
2023-02-03T02:45:02.963Z,937.00
2023-02-03T02:46:02.837Z,938.00
2023-02-03T02:47:02.840Z,938.00
2023-02-03T02:48:03.456Z,937.00
2023-02-03T02:49:02.944Z,929.00
2023-02-03T02:50:02.973Z,927.00
2023-02-03T02:51:03.016Z,925.00
2023-02-03T02:52:03.070Z,925.00
2023-02-03T02:53:03.079Z,924.00
2023-02-03T02:54:03.137Z,924.00
2023-02-03T02:55:03.155Z,924.00
2023-02-03T02:56:03.205Z,923.00
2023-02-03T02:57:03.241Z,924.00
2023-02-03T02:58:03.292Z,924.00
2023-02-03T02:59:03.346Z,922.00
2023-02-03T03:00:03.398Z,923.00
2023-02-03T03:01:03.426Z,925.00
2023-02-03T03:02:03.504Z,926.00
2023-02-03T03:03:03.484Z,927.00
2023-02-03T03:04:03.639Z,922.00
2023-02-03T03:05:03.616Z,921.00
2023-02-03T03:06:03.630Z,917.00
2023-02-03T03:07:03.659Z,921.00
2023-02-03T03:08:03.706Z,921.00
2023-02-03T03:09:03.724Z,922.00
2023-02-03T03:10:03.778Z,924.00
2023-02-03T03:11:03.815Z,921.00
2023-02-03T03:12:03.856Z,921.00
2023-02-03T03:13:03.890Z,920.00
2023-02-03T03:14:03.956Z,922.00
2023-02-03T03:15:04.487Z,923.00
2023-02-03T03:16:04.087Z,924.00
2023-02-03T03:17:04.046Z,923.00
2023-02-03T03:18:04.080Z,918.00
2023-02-03T03:19:04.199Z,919.00
2023-02-03T03:20:04.180Z,913.00
2023-02-03T03:21:04.211Z,913.00
2023-02-03T03:22:04.234Z,913.00
2023-02-03T03:23:04.267Z,913.00
2023-02-03T03:24:04.272Z,915.00
2023-02-03T03:25:04.312Z,912.00
2023-02-03T03:26:04.325Z,910.00
2023-02-03T03:27:04.372Z,909.00
2023-02-03T03:28:04.411Z,906.00
2023-02-03T03:29:04.396Z,905.00
2023-02-03T03:30:04.443Z,906.00
2023-02-03T03:31:04.699Z,904.00
2023-02-03T03:32:04.608Z,904.00
2023-02-03T03:33:04.595Z,908.00
2023-02-03T03:34:04.570Z,910.00
2023-02-03T03:35:04.599Z,908.00
2023-02-03T03:36:04.611Z,908.00
2023-02-03T03:37:04.627Z,910.00
2023-02-03T03:38:04.660Z,907.00
2023-02-03T03:39:04.677Z,907.00
2023-02-03T03:40:04.691Z,906.00
2023-02-03T03:41:04.735Z,907.00
2023-02-03T03:42:04.775Z,905.00
2023-02-03T03:43:04.805Z,902.00
2023-02-03T03:44:04.835Z,902.00
2023-02-03T03:45:04.874Z,901.00
2023-02-03T03:46:04.926Z,901.00
2023-02-03T03:47:04.994Z,900.00
2023-02-03T03:48:04.959Z,896.00
2023-02-03T03:49:04.985Z,896.00
2023-02-03T03:50:05.003Z,894.00
2023-02-03T03:51:05.062Z,896.00
2023-02-03T03:52:05.025Z,897.00
2023-02-03T03:53:05.046Z,898.00
2023-02-03T03:54:05.079Z,896.00
2023-02-03T03:55:05.159Z,892.00
2023-02-03T03:56:05.130Z,891.00
2023-02-03T03:57:05.152Z,889.00
2023-02-03T03:58:05.168Z,888.00
2023-02-03T03:59:05.194Z,889.00
2023-02-03T04:00:05.275Z,890.00
2023-02-03T04:01:05.280Z,891.00
2023-02-03T04:02:05.504Z,890.00
2023-02-03T04:03:05.341Z,890.00
2023-02-03T04:04:05.330Z,888.00
2023-02-03T04:05:05.515Z,889.00
2023-02-03T04:06:05.392Z,890.00
2023-02-03T04:07:05.421Z,889.00
2023-02-03T04:08:05.542Z,893.00
2023-02-03T04:09:05.508Z,894.00
2023-02-03T04:10:05.540Z,894.00
2023-02-03T04:11:05.567Z,891.00
2023-02-03T04:12:05.623Z,890.00
2023-02-03T04:13:05.636Z,890.00
2023-02-03T04:14:05.664Z,890.00
2023-02-03T04:16:05.793Z,888.00
2023-02-03T04:17:05.781Z,891.00
2023-02-03T04:18:05.831Z,888.00
2023-02-03T04:19:08.166Z,885.00
2023-02-03T04:20:06.057Z,885.00
2023-02-03T04:21:06.079Z,885.00
2023-02-03T04:22:06.117Z,884.00
2023-02-03T04:23:06.153Z,883.00
2023-02-03T04:24:06.184Z,881.00
2023-02-03T04:25:06.265Z,880.00
2023-02-03T04:26:06.214Z,881.00
2023-02-03T04:27:06.253Z,878.00
2023-02-03T04:28:06.365Z,877.00
2023-02-03T04:29:06.325Z,876.00
2023-02-03T04:30:06.377Z,875.00
2023-02-03T04:31:06.482Z,874.00
2023-02-03T04:32:06.504Z,874.00
2023-02-03T04:33:06.521Z,874.00
2023-02-03T04:34:06.633Z,871.00
2023-02-03T04:35:06.635Z,872.00
2023-02-03T04:36:07.004Z,871.00
2023-02-03T04:37:06.694Z,873.00
2023-02-03T04:38:06.736Z,872.00
2023-02-03T04:39:06.783Z,871.00
2023-02-03T05:34:09.229Z,845.00
2023-02-03T05:35:09.278Z,845.00
2023-02-03T05:36:09.314Z,846.00
2023-02-03T05:37:09.359Z,846.00
2023-02-03T05:38:09.439Z,846.00
2023-02-03T05:39:09.433Z,846.00
2023-02-03T05:40:09.495Z,843.00
2023-02-03T05:41:10.039Z,841.00
2023-02-03T05:42:09.598Z,841.00
2023-02-03T05:43:09.643Z,842.00
2023-02-03T05:44:09.703Z,842.00
2023-02-03T05:45:09.737Z,843.00
2023-02-03T05:46:09.832Z,844.00
2023-02-03T05:47:09.841Z,841.00
2023-02-03T05:48:09.875Z,836.00
2023-02-03T05:49:09.932Z,839.00
2023-02-03T05:50:09.964Z,836.00
2023-02-03T05:51:10.005Z,835.00
2023-02-03T05:52:10.047Z,833.00
2023-02-03T05:53:10.079Z,836.00
2023-02-03T05:54:10.126Z,835.00
2023-02-03T05:55:10.193Z,832.00
2023-02-03T05:56:10.268Z,832.00
2023-02-03T05:57:10.311Z,831.00
2023-02-03T05:58:10.359Z,831.00
2023-02-03T05:59:10.398Z,833.00
2023-02-03T06:00:10.463Z,833.00
2023-02-03T07:34:13.623Z,1652.00
2023-02-03T07:39:13.571Z,1654.00
2023-02-03T07:48:13.372Z,1544.00
2023-02-03T07:49:13.344Z,1544.00
2023-02-03T07:50:13.418Z,1546.00
2023-02-03T07:51:13.463Z,1523.00
2023-02-03T07:52:13.515Z,1490.00
2023-02-03T07:53:13.561Z,1474.00
2023-02-03T07:54:13.626Z,1435.00
2023-02-03T07:55:13.681Z,1425.00
2023-02-03T07:56:13.732Z,1444.00
2023-02-03T07:57:13.799Z,1421.00
2023-02-03T07:58:13.871Z,1410.00
2023-02-03T07:59:13.919Z,1414.00
2023-02-03T08:00:14.144Z,1412.00
2023-02-03T08:01:14.040Z,1409.00
2023-02-03T08:02:14.099Z,1397.00
2023-02-03T08:03:14.165Z,1370.00
2023-02-03T08:04:14.210Z,1367.00
2023-02-03T08:05:14.277Z,1376.00
2023-02-03T08:06:14.340Z,1366.00
2023-02-03T08:07:14.389Z,1370.00
2023-02-03T08:08:14.458Z,1372.00
2023-02-03T08:09:14.515Z,1376.00
2023-02-03T08:10:14.563Z,1363.00
2023-02-03T08:11:14.598Z,1347.00
2023-02-03T08:12:14.632Z,1364.00
2023-02-03T08:13:14.675Z,1354.00
2023-02-03T08:14:14.738Z,1343.00
2023-02-03T08:15:16.520Z,1341.00
2023-02-03T08:16:14.882Z,1338.00
2023-02-03T08:17:14.952Z,1336.00
2023-02-03T08:18:14.940Z,1614.00
2023-02-03T08:19:14.970Z,1332.00
2023-02-03T08:20:15.020Z,1328.00
2023-02-03T08:21:15.124Z,1313.00
2023-02-03T08:22:15.101Z,1457.00
2023-02-03T08:23:15.153Z,1464.00
2023-02-03T08:24:15.200Z,1576.00
2023-02-03T08:25:15.231Z,1584.00
2023-02-03T08:26:15.252Z,1590.00
2023-02-03T08:27:15.299Z,1593.00
2023-02-03T08:28:15.400Z,1589.00
2023-02-03T08:29:15.385Z,1609.00
2023-02-03T08:30:16.099Z,1684.00
2023-02-03T08:31:16.204Z,1694.00
2023-02-03T08:32:15.468Z,1712.00
2023-02-03T08:33:15.469Z,1729.00
2023-02-03T08:34:15.421Z,1738.00
2023-02-03T08:35:15.401Z,1751.00
2023-02-03T08:36:16.087Z,1827.00
2023-02-03T08:37:15.399Z,1833.00
2023-02-03T08:38:15.394Z,1848.00
2023-02-03T08:39:15.451Z,1841.00
2023-02-03T08:40:16.112Z,1847.00
2023-02-03T08:41:15.403Z,1876.00
2023-02-03T08:42:15.371Z,1886.00
2023-02-03T08:43:15.336Z,1891.00
2023-02-03T08:44:15.338Z,1897.00
2023-02-03T08:45:15.329Z,1897.00
2023-02-03T08:46:15.296Z,1905.00
2023-02-03T08:47:15.275Z,1912.00
2023-02-03T08:48:15.365Z,1924.00
2023-02-03T08:49:15.256Z,1940.00
2023-02-03T08:50:15.229Z,1952.00
2023-02-03T08:51:15.194Z,1967.00
2023-02-03T08:52:17.349Z,1994.00
2023-02-03T08:53:15.223Z,2005.00
2023-02-03T08:54:15.186Z,2014.00
2023-02-03T08:55:15.087Z,2024.00
2023-02-03T08:56:15.055Z,2050.00
2023-02-03T08:57:15.021Z,2055.00
2023-02-03T08:58:14.984Z,2057.00
2023-02-03T08:59:14.956Z,2058.00
2023-02-03T09:00:14.924Z,2059.00
2023-02-03T09:01:14.990Z,2077.00
2023-02-03T09:02:14.868Z,2116.00
2023-02-03T09:03:14.846Z,2125.00
2023-02-03T09:04:14.814Z,2129.00
2023-02-03T09:05:14.931Z,2125.00
2023-02-03T09:06:14.754Z,2130.00
2023-02-03T09:07:14.858Z,2147.00
2023-02-03T09:08:14.713Z,2152.00
2023-02-03T09:09:14.688Z,2175.00
2023-02-03T09:10:14.678Z,2203.00
2023-02-03T09:11:15.601Z,1943.00
2023-02-03T09:12:14.645Z,1552.00
2023-02-03T09:13:15.541Z,1566.00
2023-02-03T09:14:14.603Z,1419.00
2023-02-03T09:15:14.619Z,1372.00
2023-02-03T09:16:14.599Z,1377.00
2023-02-03T09:17:14.556Z,1356.00
2023-02-03T09:18:14.542Z,1308.00
2023-02-03T09:19:14.508Z,1305.00
2023-02-03T09:20:14.510Z,1309.00
2023-02-03T09:21:27.470Z,1296.00
2023-02-03T09:22:15.479Z,1360.00
2023-02-03T09:23:14.465Z,1487.00
2023-02-03T09:24:14.464Z,1524.00
2023-02-03T09:25:14.463Z,1559.00
2023-02-03T09:26:14.517Z,1369.00
2023-02-03T09:27:14.435Z,1370.00
2023-02-03T09:28:14.460Z,1516.00
2023-02-03T09:30:14.515Z,1273.00
2023-02-03T09:31:14.531Z,1246.00
2023-02-03T09:48:14.779Z,1542.00
2023-02-03T09:54:15.553Z,1650.00
2023-02-03T10:08:15.375Z,1946.00
2023-02-03T10:44:16.043Z,2117.00
2023-02-03T10:51:16.192Z,1066.00
2023-02-03T10:55:16.165Z,1202.00
2023-02-03T10:58:16.133Z,1361.00
2023-02-03T10:59:16.123Z,1420.00
2023-02-03T11:00:16.110Z,1438.00
2023-02-03T11:01:16.206Z,1445.00
2023-02-03T11:02:16.154Z,1459.00
2023-02-03T11:03:16.121Z,1514.00
2023-02-03T11:04:16.134Z,1526.00
2023-02-03T11:05:16.158Z,1537.00
2023-02-03T11:06:16.186Z,1591.00
2023-02-03T11:07:16.229Z,1624.00
2023-02-03T11:08:16.283Z,1599.00
2023-02-03T11:57:16.216Z,1502.00
2023-02-03T11:58:16.326Z,1500.00
2023-02-03T11:59:16.222Z,1499.00
2023-02-03T12:00:16.234Z,1496.00
2023-02-03T12:01:16.214Z,1486.00
2023-02-03T12:02:16.278Z,1480.00
2023-02-03T12:03:16.274Z,1476.00
2023-02-03T12:04:16.279Z,1482.00
2023-02-03T12:05:16.221Z,1483.00
2023-02-03T12:06:16.291Z,1480.00
2023-02-03T12:07:16.242Z,1480.00
2023-02-03T12:08:16.263Z,1478.00
2023-02-03T12:09:16.248Z,1473.00
2023-02-03T12:10:16.254Z,1472.00
2023-02-03T12:11:16.279Z,1474.00
2023-02-03T12:12:16.243Z,1472.00
2023-02-03T12:13:16.253Z,1468.00
2023-02-03T12:14:16.259Z,1466.00
2023-02-03T12:15:16.271Z,1461.00
2023-02-03T12:29:16.451Z,1422.00
2023-02-03T13:11:17.603Z,1365.00
2023-02-03T13:12:17.650Z,1364.00
2023-02-03T13:13:17.685Z,1362.00
2023-02-03T13:14:17.725Z,1360.00
2023-02-03T13:15:17.767Z,1356.00
2023-02-03T13:16:17.872Z,1353.00
2023-02-03T13:17:17.832Z,1354.00
2023-02-03T13:18:17.864Z,1336.00
2023-02-03T13:19:17.927Z,1255.00
2023-02-03T13:20:17.963Z,1247.00
2023-02-03T13:21:17.998Z,1240.00
2023-02-03T13:22:18.037Z,1140.00
2023-02-03T13:23:18.068Z,1137.00
2023-02-03T13:24:18.126Z,1139.00
2023-02-03T13:25:18.170Z,1131.00
2023-02-03T13:26:18.228Z,1128.00
2023-02-03T13:27:18.269Z,1131.00
2023-02-03T13:28:18.332Z,1123.00
2023-02-03T13:29:18.369Z,1125.00
2023-02-03T13:30:18.430Z,1192.00
2023-02-03T13:31:18.670Z,1182.00
2023-02-03T13:32:18.529Z,1179.00
2023-02-03T13:33:18.576Z,1182.00
2023-02-03T13:34:18.628Z,1182.00
2023-02-03T13:35:24.693Z,1186.00
2023-02-03T13:37:18.640Z,1185.00
2023-02-03T13:38:18.636Z,1184.00
2023-02-03T13:39:19.208Z,1185.00
2023-02-03T13:40:18.598Z,1183.00
2023-02-03T13:41:18.578Z,1183.00
2023-02-03T13:42:18.595Z,1189.00
2023-02-03T13:43:35.873Z,1191.00
2023-02-03T13:44:19.539Z,1188.00
2023-02-03T13:45:18.527Z,1185.00
2023-02-03T13:46:18.577Z,1184.00
2023-02-03T13:47:18.485Z,1183.00
2023-02-03T13:48:18.484Z,1177.00
2023-02-03T13:49:18.476Z,1179.00
2023-02-03T13:50:18.466Z,1180.00
2023-02-03T13:51:18.451Z,1179.00
2023-02-03T13:52:18.455Z,1177.00
2023-02-03T13:53:18.445Z,1174.00
2023-02-03T13:54:18.448Z,1176.00
2023-02-03T13:55:18.511Z,1174.00
2023-02-03T13:56:18.544Z,1174.00
2023-02-03T13:57:18.597Z,1171.00
2023-02-03T13:58:18.654Z,1171.00
2023-02-03T13:59:18.716Z,1173.00
2023-02-03T14:00:18.752Z,1171.00
2023-02-03T14:01:18.819Z,1173.00
2023-02-03T14:02:18.855Z,1172.00
2023-02-03T14:03:18.944Z,1171.00
2023-02-03T14:04:19.109Z,1172.00
2023-02-03T14:05:19.021Z,1176.00
2023-02-03T14:06:19.074Z,1176.00
2023-02-03T14:07:19.130Z,1177.00
2023-02-03T15:27:23.755Z,1108.00
2023-02-03T15:29:23.357Z,1108.00
2023-02-03T15:30:23.390Z,1106.00
2023-02-03T15:31:23.501Z,1103.00
2023-02-03T15:32:23.448Z,1105.00
2023-02-03T15:33:23.495Z,1106.00
2023-02-03T15:34:23.579Z,1101.00
2023-02-03T15:41:23.871Z,1101.00
2023-02-03T15:42:23.873Z,1098.00
2023-02-03T15:43:23.877Z,1096.00
2023-02-03T15:44:23.856Z,1095.00
2023-02-03T15:45:23.851Z,1094.00
2023-02-03T15:46:23.898Z,1096.00
2023-02-03T15:47:23.843Z,1095.00
2023-02-03T15:48:23.852Z,1095.00
2023-02-03T15:49:23.843Z,1095.00
2023-02-03T15:50:23.861Z,1094.00
2023-02-03T15:51:23.920Z,1092.00
2023-02-03T15:52:23.945Z,1090.00
2023-02-03T15:53:26.237Z,1091.00
2023-02-03T15:54:23.970Z,1090.00
2023-02-03T15:55:23.988Z,1088.00
2023-02-03T15:56:24.023Z,1088.00
2023-02-03T15:57:23.947Z,1087.00
2023-02-03T15:58:23.937Z,1090.00
2023-02-03T15:59:23.928Z,1091.00
2023-02-03T16:00:23.977Z,1089.00
2023-02-03T16:01:24.055Z,1090.00
2023-02-03T16:02:23.913Z,1088.00
2023-02-03T16:04:23.899Z,1084.00
2023-02-03T16:05:23.893Z,1081.00
2023-02-03T16:06:25.435Z,1083.00
2023-02-03T16:07:23.880Z,1080.00
2023-02-03T16:08:23.881Z,1079.00
2023-02-03T16:09:23.880Z,1077.00
2023-02-03T16:10:23.869Z,1075.00
2023-02-03T16:11:23.864Z,1072.00
2023-02-03T16:12:23.848Z,1070.00
2023-02-03T16:13:23.844Z,1072.00
2023-02-03T16:14:23.839Z,1074.00
2023-02-03T16:15:23.833Z,1072.00
2023-02-03T16:16:23.886Z,1071.00
2023-02-03T16:17:23.821Z,1068.00
2023-02-03T16:18:23.827Z,1066.00
2023-02-03T16:19:23.819Z,1065.00
2023-02-03T16:20:23.851Z,1065.00
2023-02-03T16:21:23.805Z,1067.00
2023-02-03T16:22:23.801Z,1066.00
2023-02-03T16:23:23.837Z,1065.00
2023-02-03T16:24:23.877Z,1065.00
2023-02-03T16:25:23.947Z,1070.00
2023-02-03T16:26:23.981Z,1068.00
2023-02-03T16:29:24.106Z,1062.00
2023-02-03T17:53:59.939Z,1008.00
2023-02-03T17:54:59.941Z,1006.00
2023-02-03T17:55:59.946Z,1006.00
2023-02-03T17:56:59.922Z,1005.00
2023-02-03T17:57:59.934Z,1005.00
2023-02-03T17:58:59.926Z,1004.00
2023-02-03T17:59:59.925Z,1003.00
2023-02-03T18:00:59.939Z,999.00
2023-02-03T18:02:00.003Z,1002.00
2023-02-03T18:02:59.903Z,999.00
2023-02-03T18:03:59.898Z,998.00
2023-02-03T18:04:59.895Z,994.00
2023-02-03T18:05:59.873Z,993.00
2023-02-03T18:06:59.892Z,990.00
2023-02-03T18:08:05.838Z,988.00
2023-02-03T18:09:00.860Z,989.00
2023-02-03T18:09:59.853Z,990.00
2023-02-03T18:10:59.835Z,988.00
2023-02-03T18:11:59.822Z,989.00
2023-02-03T18:12:59.819Z,987.00
2023-02-03T18:13:59.815Z,987.00
2023-02-03T18:14:59.791Z,987.00
2023-02-03T18:15:59.767Z,988.00
2023-02-03T18:16:59.812Z,986.00
2023-02-03T18:17:59.737Z,986.00
2023-02-03T18:18:59.764Z,987.00
2023-02-03T18:19:59.699Z,988.00
2023-02-03T18:20:59.694Z,991.00
2023-02-03T18:21:59.677Z,992.00
2023-02-03T18:22:59.667Z,995.00
2023-02-03T18:23:59.722Z,993.00
2023-02-03T18:24:59.728Z,992.00
2023-02-03T18:25:59.743Z,992.00
2023-02-03T18:26:59.780Z,990.00
2023-02-03T18:27:59.791Z,990.00
2023-02-03T18:28:59.799Z,990.00
2023-02-03T18:29:59.842Z,987.00
2023-02-03T18:30:59.941Z,987.00
2023-02-03T18:31:59.869Z,988.00
2023-02-03T18:32:59.881Z,987.00
2023-02-03T18:33:59.890Z,984.00
2023-02-03T18:35:00.919Z,981.00
2023-02-03T18:35:59.951Z,982.00
2023-02-03T18:36:59.992Z,983.00
2023-02-03T18:38:00.039Z,984.00
2023-02-03T18:39:00.079Z,984.00
2023-02-03T18:40:00.125Z,980.00
2023-02-03T18:41:00.155Z,980.00
2023-02-03T18:42:00.203Z,982.00
2023-02-03T18:43:00.224Z,979.00
2023-02-03T18:44:00.276Z,974.00
2023-02-03T18:45:00.306Z,974.00
2023-02-03T18:46:00.385Z,976.00
2023-02-03T18:47:00.342Z,974.00
2023-02-03T18:48:00.335Z,973.00
2023-02-03T18:49:00.336Z,970.00
2023-02-03T18:50:00.348Z,969.00
2023-02-03T18:51:00.356Z,966.00
2023-02-03T18:52:00.378Z,965.00
2023-02-03T18:53:00.422Z,965.00
2023-02-03T18:54:00.442Z,963.00
2023-02-03T18:55:00.444Z,966.00
2023-02-03T18:56:00.429Z,967.00
2023-02-03T18:57:00.407Z,968.00
2023-02-03T18:58:00.378Z,966.00
2023-02-03T18:59:00.384Z,964.00
2023-02-03T19:00:00.408Z,964.00
2023-02-03T19:01:00.425Z,964.00
2023-02-03T19:02:00.446Z,963.00
2023-02-03T19:03:00.457Z,963.00
2023-02-03T19:04:00.490Z,961.00
2023-02-03T19:05:00.506Z,960.00
2023-02-03T19:06:00.530Z,959.00
2023-02-03T19:07:00.549Z,960.00
2023-02-03T19:08:00.592Z,957.00
2023-02-03T19:09:00.616Z,959.00
2023-02-03T19:10:00.647Z,958.00
2023-02-03T19:11:00.647Z,958.00
2023-02-03T19:12:00.669Z,960.00
2023-02-03T19:13:00.682Z,959.00
2023-02-03T19:14:00.689Z,957.00
2023-02-03T19:15:01.118Z,957.00
2023-02-03T19:16:00.767Z,958.00
2023-02-03T19:17:00.777Z,954.00
2023-02-03T19:18:00.783Z,952.00
2023-02-03T19:19:00.816Z,951.00
2023-02-03T19:20:00.847Z,952.00
2023-02-03T19:21:00.881Z,954.00
2023-02-03T19:22:00.933Z,952.00
2023-02-03T19:23:00.960Z,953.00
2023-02-03T19:24:00.988Z,954.00
2023-02-03T19:25:01.056Z,953.00
2023-02-03T19:26:01.079Z,951.00
2023-02-03T19:27:01.100Z,949.00
2023-02-03T19:28:01.155Z,946.00
2023-02-03T19:29:01.133Z,948.00
2023-02-03T19:30:01.144Z,949.00
2023-02-03T19:31:07.627Z,949.00
2023-02-03T19:32:02.246Z,952.00
2023-02-03T19:33:01.141Z,949.00
2023-02-03T19:34:01.126Z,951.00
2023-02-03T19:35:01.132Z,953.00
2023-02-03T19:36:01.089Z,952.00
2023-02-03T19:37:01.647Z,949.00
2023-02-03T19:38:01.071Z,951.00
2023-02-03T19:39:01.050Z,949.00
2023-02-03T19:40:01.061Z,948.00
2023-02-03T19:41:01.032Z,944.00
2023-02-03T19:42:01.018Z,941.00
2023-02-03T19:43:01.008Z,941.00
2023-02-03T19:44:01.043Z,941.00
2023-02-03T19:45:01.145Z,940.00
2023-02-03T19:46:01.172Z,941.00
2023-02-03T19:47:01.137Z,940.00
2023-02-03T19:48:01.190Z,940.00
2023-02-03T19:49:01.222Z,940.00
2023-02-03T19:50:01.271Z,937.00
2023-02-03T19:51:01.296Z,936.00
2023-02-03T19:52:01.341Z,934.00
2023-02-03T19:53:01.374Z,936.00
2023-02-03T19:54:01.402Z,932.00
2023-02-03T19:55:01.419Z,934.00
2023-02-03T19:56:01.411Z,934.00
2023-02-03T19:57:01.426Z,938.00
2023-02-03T19:58:01.441Z,940.00
2023-02-03T19:59:01.453Z,942.00
2023-02-03T20:00:01.520Z,945.00
2023-02-03T20:01:01.506Z,942.00
2023-02-03T20:02:12.574Z,940.00
2023-02-03T20:03:02.508Z,938.00
2023-02-03T20:04:01.499Z,937.00
2023-02-03T20:05:01.609Z,938.00
2023-02-03T20:06:01.490Z,938.00
2023-02-03T20:07:01.475Z,937.00
2023-02-03T20:08:01.560Z,934.00
2023-02-03T20:09:01.454Z,932.00
2023-02-03T20:10:01.415Z,934.00
2023-02-03T20:11:01.506Z,936.00
2023-02-03T20:12:01.417Z,934.00
2023-02-03T20:13:01.397Z,936.00
2023-02-03T20:14:01.393Z,933.00
2023-02-03T20:15:01.369Z,932.00
2023-02-03T20:16:01.376Z,933.00
2023-02-03T20:17:01.365Z,933.00
2023-02-03T20:18:01.353Z,929.00
2023-02-03T20:19:01.351Z,930.00
2023-02-03T20:20:01.359Z,928.00
2023-02-03T20:21:01.399Z,925.00
2023-02-03T20:22:01.467Z,926.00
2023-02-03T20:23:01.487Z,924.00
2023-02-03T20:24:01.606Z,923.00
2023-02-03T20:25:01.593Z,922.00
2023-02-03T20:26:01.663Z,924.00
2023-02-03T20:27:01.694Z,926.00
2023-02-03T20:28:01.822Z,926.00
2023-02-03T20:29:01.783Z,928.00
2023-02-03T20:30:01.826Z,927.00
2023-02-03T20:31:02.124Z,927.00
2023-02-03T20:32:01.937Z,924.00
2023-02-03T20:33:01.928Z,924.00
2023-02-03T23:37:08.129Z,853.00
2023-02-03T23:38:08.209Z,853.00
2023-02-03T23:39:08.291Z,852.00
2023-02-03T23:40:08.383Z,853.00
2023-02-03T23:41:08.449Z,850.00
2023-02-03T23:42:08.527Z,847.00
2023-02-03T23:43:08.574Z,845.00
2023-02-03T23:44:08.632Z,845.00
2023-02-03T23:45:08.683Z,845.00
2023-02-03T23:46:08.822Z,840.00
2023-02-03T23:47:08.807Z,841.00
2023-02-03T23:48:08.894Z,843.00
2023-02-03T23:49:08.961Z,843.00
2023-02-03T23:50:09.005Z,845.00
2023-02-03T23:51:09.050Z,842.00
2023-02-03T23:52:09.127Z,844.00
2023-02-03T23:53:09.140Z,845.00
2023-02-03T23:54:09.194Z,842.00
2023-02-03T23:55:09.212Z,842.00
2023-02-03T23:56:09.261Z,839.00
2023-02-03T23:57:09.312Z,836.00
2023-02-03T23:58:09.336Z,837.00
2023-02-03T23:59:09.381Z,838.00
